Time;durP1;ratioP1;P1;durP2;ratioP2;P2;SDS_P1;SDS_P2;PMS_P1;PMS_P2;Temp;Humidity;BMP_temperature;BMP_pressure;BME280_temperature;BME280_humidity;BME280_pressure;Samples;Min_cycle;Max_cycle;Signal;HPM_P1;HPM_P2
2021/11/24 00:01:07;;;;;;;24.82;14.05;;;;;;;-2.94;100.00;101584.41;1742357;81;21069;-80
2021/11/24 00:03:34;;;;;;;25.12;14.13;;;;;;;-2.94;100.00;101593.33;1766205;81;21057;-81
2021/11/24 00:06:02;;;;;;;29.52;15.63;;;;;;;-2.93;100.00;101595.90;1765446;80;21606;-80
2021/11/24 00:08:29;;;;;;;21.42;13.80;;;;;;;-2.92;100.00;101600.55;1766074;80;21047;-81
2021/11/24 00:10:56;;;;;;;24.27;13.15;;;;;;;-2.93;100.00;101598.45;1765432;81;21134;-79
2021/11/24 00:13:23;;;;;;;27.58;14.10;;;;;;;-2.95;100.00;101597.59;1765986;80;21025;-79
2021/11/24 00:15:50;;;;;;;22.60;12.95;;;;;;;-2.97;100.00;101601.84;1742667;81;21065;-80
2021/11/24 00:18:18;;;;;;;24.98;14.68;;;;;;;-2.99;100.00;101597.17;1743407;81;21006;-79
2021/11/24 00:20:45;;;;;;;22.48;14.18;;;;;;;-3.03;100.00;101602.70;1742829;81;21827;-79
2021/11/24 00:23:12;;;;;;;24.47;13.48;;;;;;;-3.06;100.00;101602.73;1765832;80;21583;-79
2021/11/24 00:25:39;;;;;;;25.48;14.55;;;;;;;-3.07;100.00;101602.71;1765126;80;21700;-81
2021/11/24 00:28:06;;;;;;;21.48;13.15;;;;;;;-3.10;100.00;101601.47;1765831;80;21053;-79
2021/11/24 00:30:34;;;;;;;20.08;12.68;;;;;;;-3.14;100.00;101612.09;1769750;81;21634;-80
2021/11/24 00:33:01;;;;;;;25.25;14.63;;;;;;;-3.17;100.00;101605.31;1765503;81;21065;-80
2021/11/24 00:35:28;;;;;;;24.85;13.45;;;;;;;-3.18;100.00;101612.52;1765084;80;21736;-82
2021/11/24 00:37:55;;;;;;;20.30;12.45;;;;;;;-3.19;100.00;101601.04;1765235;80;21097;-82
2021/11/24 00:40:23;;;;;;;22.37;13.00;;;;;;;-3.21;100.00;101607.86;1742468;81;21089;-82
2021/11/24 00:42:51;;;;;;;26.12;14.53;;;;;;;-3.25;100.00;101608.70;1765230;80;21826;-80
2021/11/24 00:45:22;;;;;;;25.92;14.07;;;;;;;-3.31;100.00;101612.10;1765647;80;21033;-80
2021/11/24 00:47:50;;;;;;;23.10;14.28;;;;;;;-3.36;100.00;101612.55;1765613;81;21870;-79
2021/11/24 00:50:18;;;;;;;25.55;13.40;;;;;;;-3.37;100.00;101612.12;1765046;80;21021;-80
2021/11/24 00:52:45;;;;;;;22.48;12.90;;;;;;;-3.41;100.00;101616.81;1742554;80;21050;-81
2021/11/24 00:55:13;;;;;;;23.47;13.28;;;;;;;-3.45;100.00;101618.91;1733848;81;21096;-80
2021/11/24 00:57:40;;;;;;;23.60;13.13;;;;;;;-3.50;100.00;101622.33;1766110;80;20982;-79
2021/11/24 01:00:14;;;;;;;19.55;11.40;;;;;;;-3.54;100.00;101623.60;1766490;80;21129;-80
2021/11/24 01:02:38;;;;;;;22.45;11.75;;;;;;;-3.58;100.00;101630.80;1761805;80;20971;-81
2021/11/24 01:05:06;;;;;;;18.60;11.15;;;;;;;-3.63;100.00;101623.16;1766462;80;21017;-80
2021/11/24 01:07:33;;;;;;;16.77;10.85;;;;;;;-3.66;100.00;101623.18;1765883;80;21109;-80
2021/11/24 01:10:00;;;;;;;19.57;11.08;;;;;;;-3.69;100.00;101625.71;1765842;80;21033;-81
2021/11/24 01:12:29;;;;;;;17.37;11.53;;;;;;;-3.70;100.00;101621.47;1755583;81;21002;-80
2021/11/24 01:14:56;;;;;;;17.98;11.15;;;;;;;-3.71;100.00;101623.17;1748915;81;21137;-79
2021/11/24 01:17:23;;;;;;;18.87;10.72;;;;;;;-3.71;100.00;101628.27;1725877;82;21053;-79
2021/11/24 01:19:50;;;;;;;23.45;13.48;;;;;;;-3.72;100.00;101624.42;1718695;82;21029;-80
2021/11/24 01:22:18;;;;;;;19.35;11.63;;;;;;;-3.74;100.00;101632.07;1742563;82;21056;-80
2021/11/24 01:24:45;;;;;;;21.60;10.88;;;;;;;-3.78;100.00;101639.70;1743391;82;21148;-79
2021/11/24 01:27:12;;;;;;;17.45;11.05;;;;;;;-3.86;100.00;101636.73;1743135;81;21045;-79
2021/11/24 01:29:40;;;;;;;21.57;11.63;;;;;;;-3.91;100.00;101640.97;1740959;82;21116;-79
2021/11/24 01:32:07;;;;;;;16.55;10.05;;;;;;;-3.96;100.00;101642.23;1741280;81;21585;-79
2021/11/24 01:34:35;;;;;;;17.20;10.50;;;;;;;-4.03;100.00;101646.89;1741172;81;21519;-80
2021/11/24 01:37:02;;;;;;;16.80;9.93;;;;;;;-4.06;100.00;101646.03;1742212;81;21075;-80
2021/11/24 01:39:29;;;;;;;16.20;9.73;;;;;;;-4.09;100.00;101646.02;1741088;82;21053;-79
2021/11/24 01:41:57;;;;;;;16.25;10.48;;;;;;;-4.12;100.00;101651.95;1717049;82;22197;-80
2021/11/24 01:44:28;;;;;;;20.50;12.90;;;;;;;-4.15;100.00;101650.26;1740429;81;21057;-80
2021/11/24 01:47:02;;;;;;;20.68;11.65;;;;;;;-4.14;100.00;101652.36;1743080;81;21085;-81
2021/11/24 01:49:31;;;;;;;16.25;9.63;;;;;;;-4.15;100.00;101648.98;1741273;82;21117;-80
2021/11/24 01:51:58;;;;;;;21.73;10.90;;;;;;;-4.15;100.00;101655.75;1740809;81;21022;-79
2021/11/24 01:54:27;;;;;;;16.32;10.82;;;;;;;-4.16;100.00;101649.83;1734405;82;21537;-82
2021/11/24 01:56:57;;;;;;;34.05;17.98;;;;;;;-4.14;100.00;101653.63;1731496;81;21018;-80
2021/11/24 01:59:25;;;;;;;33.42;15.60;;;;;;;-4.14;100.00;101651.09;1735388;82;21018;-80
2021/11/24 02:01:57;;;;;;;23.50;13.48;;;;;;;-4.14;100.00;101655.77;1731267;81;21105;-81
2021/11/24 02:04:24;;;;;;;24.57;12.33;;;;;;;-4.13;100.00;101654.91;1732482;82;21061;-81
2021/11/24 02:06:52;;;;;;;18.27;11.12;;;;;;;-4.09;100.00;101660.02;1733738;82;21093;-81
2021/11/24 02:09:21;;;;;;;23.87;13.32;;;;;;;-4.08;100.00;101657.89;1734198;82;21045;-81
2021/11/24 02:11:49;;;;;;;20.37;12.18;;;;;;;-4.09;100.00;101662.55;1733555;82;21064;-81
2021/11/24 02:14:18;;;;;;;24.82;13.93;;;;;;;-4.08;100.00;101665.53;1733798;82;21556;-80
2021/11/24 02:16:53;;;;;;;24.63;12.88;;;;;;;-4.07;100.00;101665.96;1733692;81;21679;-81
2021/11/24 02:19:24;;;;;;;21.93;12.85;;;;;;;-4.04;100.00;101668.50;1734119;82;21026;-80
2021/11/24 02:21:53;;;;;;;21.23;12.43;;;;;;;-4.04;100.00;101668.50;1730436;82;21564;-82
2021/11/24 02:24:24;;;;;;;23.00;12.13;;;;;;;-4.03;100.00;101668.92;1734224;82;21124;-85
2021/11/24 02:26:51;;;;;;;24.10;13.48;;;;;;;-4.02;100.00;101675.72;1731013;81;21599;-83
2021/11/24 02:29:18;;;;;;;28.67;13.70;;;;;;;-4.02;100.00;101675.31;1733951;81;21085;-86
2021/11/24 02:31:48;;;;;;;23.83;13.22;;;;;;;-3.99;100.00;101681.66;1733768;82;21077;-80
2021/11/24 02:34:16;;;;;;;21.73;11.70;;;;;;;-3.99;100.00;101686.75;1734101;82;21089;-81
2021/11/24 02:36:44;;;;;;;23.40;12.55;;;;;;;-4.01;100.00;101688.88;1733912;82;21610;-80
2021/11/24 02:39:13;;;;;;;22.67;13.30;;;;;;;-4.04;100.00;101693.94;1733924;82;21176;-80
2021/11/24 02:41:43;;;;;;;25.25;13.78;;;;;;;-4.10;100.00;101699.02;1733799;81;21077;-80
2021/11/24 02:44:28;;;;;;;20.35;11.03;;;;;;;-4.14;100.00;101705.39;1737176;82;21061;-81
2021/11/24 02:47:06;;;;;;;22.13;12.37;;;;;;;-4.16;100.00;101699.44;1734242;81;21069;-80
2021/11/24 02:49:38;;;;;;;17.20;10.28;;;;;;;-4.17;100.00;101699.44;1709626;82;21088;-84
2021/11/24 02:52:06;;;;;;;19.55;10.85;;;;;;;-4.21;100.00;101702.80;1733954;82;21109;-81
2021/11/24 02:54:34;;;;;;;19.40;11.60;;;;;;;-4.21;100.00;101698.98;1737527;82;21041;-81
2021/11/24 02:57:05;;;;;;;18.52;11.83;;;;;;;-4.23;100.00;101693.91;1713145;82;21022;-80
2021/11/24 02:59:32;;;;;;;23.60;12.82;;;;;;;-4.23;100.00;101701.94;1737787;81;21013;-81
2021/11/24 03:02:00;;;;;;;23.02;13.70;;;;;;;-4.26;100.00;101699.40;1737615;82;21010;-81
2021/11/24 03:04:30;;;;;;;28.07;14.55;;;;;;;-4.31;100.00;101707.01;1733574;82;21003;-82
2021/11/24 03:07:00;;;;;;;24.20;12.03;;;;;;;-4.38;100.00;101710.38;1734002;82;21073;-81
2021/11/24 03:09:29;;;;;;;;;;;;;;;-4.48;100.00;101717.08;1736763;82;21049;-85
2021/11/24 03:11:57;;;;;;;21.45;11.12;;;;;;;-4.55;100.00;101723.85;1734296;81;20217;-87
2021/11/24 03:14:24;;;;;;;16.23;10.03;;;;;;;-4.62;100.00;101722.95;1734217;82;21077;-83
2021/11/24 03:16:51;;;;;;;21.00;11.80;;;;;;;-4.69;100.00;101723.77;1734327;82;21105;-86
2021/11/24 03:19:18;;;;;;;22.48;12.05;;;;;;;-4.76;100.00;101721.59;1737748;82;21076;-82
2021/11/24 03:21:46;;;;;;;31.42;16.42;;;;;;;-4.80;100.00;101718.62;1737814;82;21543;-80
2021/11/24 03:24:13;;;;;;;25.85;11.93;;;;;;;-4.81;100.00;101722.00;1734030;82;21120;-80
2021/11/24 03:26:40;;;;;;;33.40;16.00;;;;;;;-4.82;100.00;101727.08;1738128;82;21066;-81
2021/11/24 03:29:07;;;;;;;40.38;15.28;;;;;;;-4.85;100.00;101722.83;1734182;82;21105;-80
2021/11/24 03:31:34;;;;;;;32.10;15.85;;;;;;;-4.86;100.00;101726.21;1734543;82;21029;-81
2021/11/24 03:34:01;;;;;;;43.38;18.55;;;;;;;-4.86;100.00;101730.02;1734266;82;21101;-81
2021/11/24 03:36:29;;;;;;;35.35;15.28;;;;;;;-4.88;100.00;101738.05;1733829;81;21834;-80
2021/11/24 03:38:56;;;;;;;28.47;14.38;;;;;;;-4.89;100.00;101748.21;1734311;81;21025;-81
2021/11/24 03:41:23;;;;;;;29.37;13.65;;;;;;;-4.95;100.00;101745.20;1733764;81;21130;-80
2021/11/24 03:43:50;;;;;;;28.00;15.85;;;;;;;-4.99;100.00;101743.45;1734180;81;21339;-80
2021/11/24 03:46:18;;;;;;;31.30;18.20;;;;;;;-5.00;100.00;101749.38;1733989;82;21710;-81
2021/11/24 03:48:45;;;;;;;27.48;15.23;;;;;;;-5.00;100.00;101749.38;1735255;81;21104;-80
2021/11/24 03:51:12;;;;;;;25.57;15.55;;;;;;;-5.00;100.00;101751.91;1735837;81;21080;-80
2021/11/24 03:53:40;;;;;;;26.52;14.80;;;;;;;-5.00;100.00;101755.72;1738290;80;21125;-81
2021/11/24 03:56:10;;;;;;;23.73;13.22;;;;;;;-5.02;100.00;101760.80;1765160;80;22348;-80
2021/11/24 03:58:38;;;;;;;23.38;14.05;;;;;;;-5.02;100.00;101767.59;1755935;81;21043;-81
2021/11/24 04:01:06;;;;;;;21.73;14.13;;;;;;;-5.03;100.00;101769.69;1733182;81;20956;-81
2021/11/24 04:03:34;;;;;;;20.68;13.28;;;;;;;-5.00;100.00;101781.12;1732486;81;21102;-82
2021/11/24 04:06:01;;;;;;;24.25;13.88;;;;;;;-5.01;100.00;101785.38;1684308;83;21610;-80
2021/11/24 04:08:28;;;;;;;22.75;14.05;;;;;;;-5.04;100.00;101784.50;1741124;81;21025;-82
2021/11/24 04:10:56;;;;;;;27.37;15.20;;;;;;;-5.05;100.00;101789.14;1740716;82;21582;-83
2021/11/24 04:13:24;;;;;;;27.95;14.78;;;;;;;-5.05;100.00;101796.36;1740674;82;21089;-81
2021/11/24 04:15:51;;;;;;;28.70;14.65;;;;;;;-5.04;100.00;101796.77;1748178;81;21041;-82
2021/11/24 04:18:18;;;;;;;32.55;15.40;;;;;;;-5.03;100.00;101799.74;1744757;82;21667;-82
2021/11/24 04:20:45;;;;;;;31.23;15.48;;;;;;;-5.01;100.00;101806.13;1744958;81;21258;-80
2021/11/24 04:23:12;;;;;;;29.52;15.65;;;;;;;-5.01;100.00;101804.43;1745670;81;21523;-80
2021/11/24 04:25:39;;;;;;;34.88;16.97;;;;;;;-5.00;100.00;101801.05;1745121;80;21072;-81
2021/11/24 04:28:06;;;;;;;30.50;15.95;;;;;;;-5.00;100.00;101811.62;1734575;81;21551;-85
2021/11/24 04:30:35;;;;;;;32.15;16.00;;;;;;;-5.02;100.00;101815.86;1744421;80;21966;-80
2021/11/24 04:33:02;;;;;;;33.67;15.88;;;;;;;-5.05;100.00;101818.36;1744574;81;21060;-81
2021/11/24 04:35:30;;;;;;;36.13;16.50;;;;;;;-5.05;100.00;101815.41;1745058;82;21017;-81
2021/11/24 04:38:00;;;;;;;33.13;16.05;;;;;;;-5.03;100.00;101814.98;1740792;80;20975;-81
2021/11/24 04:40:27;;;;;;;41.08;18.52;;;;;;;-5.00;100.00;101812.48;1730827;81;21071;-81
2021/11/24 04:42:55;;;;;;;43.50;19.48;;;;;;;-4.97;100.00;101819.28;1759981;80;21050;-81
2021/11/24 04:45:23;;;;;;;63.35;22.35;;;;;;;-4.76;100.00;101827.07;1755171;80;21015;-83
2021/11/24 04:47:50;;;;;;;71.97;23.35;;;;;;;-4.09;100.00;101827.94;1755390;80;21372;-85
2021/11/24 04:50:17;;;;;;;50.05;19.65;;;;;;;-3.47;100.00;101830.72;1755235;81;21019;-86
2021/11/24 04:52:45;;;;;;;43.20;18.07;;;;;;;-3.09;100.00;101838.89;1754919;81;21073;-84
2021/11/24 04:55:14;;;;;;;44.73;18.87;;;;;;;-3.01;100.00;101833.37;1755341;81;21906;-81
2021/11/24 04:57:42;;;;;;;44.67;20.17;;;;;;;-3.00;100.00;101836.33;1755539;81;21476;-83
2021/11/24 05:00:18;;;;;;;27.48;16.37;;;;;;;-2.93;100.00;101844.44;1755431;81;21003;-80
2021/11/24 05:02:43;;;;;;;49.25;20.27;;;;;;;-2.90;100.00;101847.41;1752469;81;21050;-83
2021/11/24 05:05:10;;;;;;;33.83;17.35;;;;;;;-2.91;100.00;101848.25;1767676;80;21093;-83
2021/11/24 05:07:38;;;;;;;28.42;16.05;;;;;;;-2.83;100.00;101845.28;1755645;81;21124;-82
2021/11/24 05:10:07;;;;;;;26.77;14.30;;;;;;;-2.97;100.00;101852.91;1755739;81;21011;-81
2021/11/24 05:12:36;;;;;;;26.80;13.70;;;;;;;-3.18;100.00;101861.37;1733021;81;21002;-82
2021/11/24 05:15:05;;;;;;;27.05;14.90;;;;;;;-3.38;100.00;101867.69;1755482;81;21066;-81
2021/11/24 05:17:33;;;;;;;34.40;14.40;;;;;;;-3.55;100.00;101876.12;1732374;81;21062;-80
2021/11/24 05:20:04;;;;;;;26.80;14.47;;;;;;;-3.70;100.00;101872.23;1754415;81;21026;-85
2021/11/24 05:22:33;;;;;;;23.42;14.47;;;;;;;-3.84;100.00;101883.22;1755284;81;21744;-83
2021/11/24 05:25:00;;;;;;;30.37;14.07;;;;;;;-3.93;100.00;101888.25;1755554;81;20995;-81
2021/11/24 05:27:27;;;;;;;23.55;13.22;;;;;;;-4.02;100.00;101890.73;1754922;81;21125;-82
2021/11/24 05:29:54;;;;;;;27.48;13.15;;;;;;;-4.10;100.00;101892.38;1732251;81;21602;-81
2021/11/24 05:32:21;;;;;;;21.05;12.78;;;;;;;-4.20;100.00;101889.77;1745492;81;21072;-81
2021/11/24 05:34:48;;;;;;;40.05;23.70;;;;;;;-4.29;100.00;101893.55;1726337;82;21105;-82
2021/11/24 05:37:16;;;;;;;57.43;34.43;;;;;;;-4.34;100.00;101895.19;1738170;81;21316;-85
2021/11/24 05:39:43;;;;;;;56.75;31.57;;;;;;;-4.38;100.00;101902.38;1750921;81;21003;-83
2021/11/24 05:42:11;;;;;;;54.15;29.72;;;;;;;-4.42;100.00;101906.99;1725550;82;21054;-83
2021/11/24 05:44:42;;;;;;;47.43;25.75;;;;;;;-4.43;100.00;101913.78;1750103;80;21092;-82
2021/11/24 05:47:11;;;;;;;43.17;24.55;;;;;;;-4.43;100.00;101920.14;1728200;81;21002;-81
2021/11/24 05:49:38;;;;;;;39.55;21.33;;;;;;;-4.39;100.00;101929.48;1754277;80;21070;-81
2021/11/24 05:52:08;;;;;;;32.67;16.25;;;;;;;-4.38;100.00;101929.92;1754167;81;21034;-82
2021/11/24 05:54:35;;;;;;;27.25;14.33;;;;;;;-4.39;100.00;101929.92;1755792;81;21126;-81
2021/11/24 05:57:03;;;;;;;23.98;14.75;;;;;;;-4.40;100.00;101934.57;1765676;81;21133;-82
2021/11/24 05:59:33;;;;;;;27.42;14.75;;;;;;;-4.42;100.00;101931.16;1765449;81;21502;-81
2021/11/24 06:01:59;;;;;;;29.75;15.75;;;;;;;-4.44;100.00;101931.16;1765759;81;21075;-81
2021/11/24 06:04:26;;;;;;;45.73;14.70;;;;;;;-4.45;100.00;101934.53;1765079;80;21031;-82
2021/11/24 06:06:53;;;;;;;24.85;14.65;;;;;;;-4.50;100.00;101933.22;1766094;81;21020;-82
2021/11/24 06:09:22;;;;;;;26.30;14.13;;;;;;;-4.50;100.00;101937.03;1765712;80;21036;-84
2021/11/24 06:11:49;;;;;;;28.30;13.55;;;;;;;-4.52;100.00;101943.78;1742117;81;21017;-84
2021/11/24 06:14:17;;;;;;;22.82;13.72;;;;;;;-4.53;100.00;101942.11;1771456;79;21046;-83
2021/11/24 06:16:44;;;;;;;24.95;14.00;;;;;;;-4.53;100.00;101947.19;1767744;79;21033;-84
2021/11/24 06:19:12;;;;;;;25.23;15.38;;;;;;;-4.51;100.00;101950.58;1762795;81;21594;-82
2021/11/24 06:21:42;;;;;;;27.10;14.80;;;;;;;-4.46;100.00;101950.62;1765274;80;21114;-81
2021/11/24 06:24:10;;;;;;;24.75;14.53;;;;;;;-4.42;100.00;101952.77;1708175;82;21067;-81
2021/11/24 06:26:37;;;;;;;22.58;14.03;;;;;;;-4.39;100.00;101948.56;1702612;83;21022;-81
2021/11/24 06:29:04;;;;;;;23.90;14.60;;;;;;;-4.34;100.00;101956.23;1708169;83;21093;-82
2021/11/24 06:31:32;;;;;;;20.68;13.75;;;;;;;-4.30;100.00;101952.89;1702574;83;21074;-81
2021/11/24 06:33:59;;;;;;;22.52;14.55;;;;;;;-4.24;100.00;101954.20;1683472;83;21100;-84
2021/11/24 06:36:27;;;;;;;24.15;14.05;;;;;;;-4.20;100.00;101950.83;1716363;81;21042;-82
2021/11/24 06:38:54;;;;;;;21.87;13.85;;;;;;;-4.13;100.00;101955.13;1708409;83;21082;-81
2021/11/24 06:41:21;;;;;;;20.92;13.78;;;;;;;-4.06;100.00;101952.65;1742728;81;21069;-82
2021/11/24 06:43:49;;;;;;;25.45;14.70;;;;;;;-4.01;100.00;101949.70;1730716;80;21519;-81
2021/11/24 06:46:16;;;;;;;20.27;13.32;;;;;;;-3.94;100.00;101956.97;1772327;80;21139;-82
2021/11/24 06:48:44;;;;;;;26.62;14.55;;;;;;;-3.87;100.00;101961.25;1716125;82;21093;-87
2021/11/24 06:51:11;;;;;;;24.72;16.55;;;;;;;-3.82;100.00;101964.27;1706654;83;21670;-84
2021/11/24 06:53:40;;;;;;;41.80;16.55;;;;;;;-3.31;100.00;101964.94;1676386;84;21017;-83
2021/11/24 06:56:09;;;;;;;31.95;17.57;;;;;;;-2.83;100.00;101966.79;1675044;83;21073;-84
2021/11/24 06:58:36;;;;;;;31.42;17.73;;;;;;;-2.59;100.00;101968.12;1708891;83;21814;-84
2021/11/24 07:01:04;;;;;;;27.98;17.30;;;;;;;-2.32;100.00;101975.38;1662132;84;21092;-85
2021/11/24 07:03:31;;;;;;;29.80;17.42;;;;;;;-2.09;100.00;101972.84;1675126;84;21174;-81
2021/11/24 07:05:58;;;;;;;34.13;18.75;;;;;;;-1.89;100.00;101967.28;1654286;85;21084;-81
2021/11/24 07:08:25;;;;;;;28.05;16.55;;;;;;;-1.66;100.00;101967.22;1667448;85;21049;-82
2021/11/24 07:10:52;;;;;;;26.45;16.05;;;;;;;-1.56;100.00;101965.08;1722656;82;21799;-82
2021/11/24 07:13:19;;;;;;;23.15;14.63;;;;;;;-1.65;100.00;101970.20;1724023;82;21054;-82
2021/11/24 07:15:46;;;;;;;28.15;16.12;;;;;;;-1.76;100.00;101976.61;1759696;80;21041;-82
2021/11/24 07:18:13;;;;;;;33.50;15.83;;;;;;;-1.86;100.00;101980.03;1768939;80;21091;-81
2021/11/24 07:20:42;;;;;;;33.85;16.62;;;;;;;-1.93;100.00;101976.66;1762133;80;21110;-81
2021/11/24 07:23:09;;;;;;;27.50;16.35;;;;;;;-2.00;100.00;101974.52;1758624;80;21139;-82
2021/11/24 07:25:36;;;;;;;25.92;17.60;;;;;;;-2.02;100.00;101978.77;1737692;79;21032;-83
2021/11/24 07:28:04;;;;;;;26.65;16.60;;;;;;;-2.02;100.00;101986.42;1744350;80;21066;-82
2021/11/24 07:30:32;;;;;;;32.95;16.73;;;;;;;-2.02;100.00;101985.16;1741154;81;21039;-83
2021/11/24 07:33:03;;;;;;;28.05;16.25;;;;;;;-1.99;100.00;101994.09;1764484;81;21554;-82
2021/11/24 07:35:32;;;;;;;25.23;16.77;;;;;;;-1.96;100.00;101996.63;1717881;82;21137;-83
2021/11/24 07:38:01;;;;;;;30.10;16.80;;;;;;;-1.93;100.00;101996.64;1757746;80;21511;-83
2021/11/24 07:40:28;;;;;;;26.68;16.45;;;;;;;-1.91;100.00;101998.77;1731214;80;21737;-83
2021/11/24 07:42:56;;;;;;;28.92;16.50;;;;;;;-1.89;100.00;101997.48;1773093;80;21039;-82
2021/11/24 07:45:25;;;;;;;28.62;16.67;;;;;;;-1.87;100.00;102002.17;1765193;80;21122;-82
2021/11/24 07:48:06;;;;;;;31.62;17.42;;;;;;;-1.84;100.00;102007.70;1758329;80;21146;-84
2021/11/24 07:50:35;;;;;;;29.37;15.88;;;;;;;-1.85;100.00;102006.86;1713464;81;21009;-84
2021/11/24 07:53:06;;;;;;;30.27;16.35;;;;;;;-1.80;100.00;102025.57;1772924;80;21093;-85
2021/11/24 07:55:35;;;;;;;25.60;14.98;;;;;;;-1.77;100.00;102020.47;1766400;80;21038;-83
2021/11/24 07:58:02;;;;;;;23.87;14.58;;;;;;;-1.71;100.00;102020.03;1765542;80;21042;-83
2021/11/24 08:00:31;;;;;;;29.65;17.23;;;;;;;-1.67;100.00;102021.71;1765281;80;21803;-83
2021/11/24 08:02:58;;;;;;;26.17;14.87;;;;;;;-1.64;100.00;102017.89;1741844;81;21910;-82
2021/11/24 08:05:25;;;;;;;22.37;14.43;;;;;;;-1.60;100.00;102025.55;1761527;79;21495;-83
2021/11/24 08:07:53;;;;;;;21.75;14.35;;;;;;;-1.55;100.00;102024.67;1764970;80;21811;-83
2021/11/24 08:10:20;;;;;;;20.25;13.28;;;;;;;-1.48;100.00;102022.12;1752787;81;21101;-84
2021/11/24 08:12:48;;;;;;;22.73;14.58;;;;;;;-1.38;100.00;102027.20;1719517;80;21051;-82
2021/11/24 08:15:15;;;;;;;21.02;13.08;;;;;;;-1.31;100.00;102024.62;1731612;80;21354;-83
2021/11/24 08:17:42;;;;;;;20.23;13.88;;;;;;;-1.25;100.00;102019.92;1732988;82;21630;-82
2021/11/24 08:20:10;;;;;;;18.77;11.93;;;;;;;-1.19;100.00;102023.73;1729177;80;22245;-83
2021/11/24 08:22:38;;;;;;;16.45;11.90;;;;;;;-1.14;100.00;102022.02;1764153;80;21419;-83
2021/11/24 08:25:07;;;;;;;17.87;11.88;;;;;;;-1.07;100.00;102010.05;1721224;81;21136;-83
2021/11/24 08:27:44;;;;;;;18.57;12.80;;;;;;;-0.91;100.00;102015.95;1709500;81;21547;-84
2021/11/24 08:30:15;;;;;;;22.20;13.35;;;;;;;-0.91;100.00;102015.95;1766389;80;21453;-82
2021/11/24 08:32:42;;;;;;;16.80;11.40;;;;;;;-0.89;100.00;102018.50;1768096;80;21992;-82
2021/11/24 08:35:11;;;;;;;16.15;11.10;;;;;;;-0.85;100.00;102016.36;1764934;80;21037;-83
2021/11/24 08:37:38;;;;;;;20.10;11.15;;;;;;;-0.79;100.00;102015.05;1752378;80;21794;-83
2021/11/24 08:40:08;;;;;;;14.07;9.85;;;;;;;-0.72;100.00;102015.43;1761927;81;21537;-84
2021/11/24 08:42:36;;;;;;;16.75;11.83;;;;;;;-0.64;100.00;102020.08;1750453;81;21130;-83
2021/11/24 08:45:10;;;;;;;17.52;12.00;;;;;;;-0.56;100.00;102023.85;1764858;80;21049;-83
2021/11/24 08:47:40;;;;;;;20.10;12.07;;;;;;;-0.50;100.00;102014.88;1764574;80;21056;-83
2021/11/24 08:50:11;;;;;;;20.70;12.35;;;;;;;-0.44;100.00;102013.97;1757158;81;21155;-83
2021/11/24 08:52:39;;;;;;;14.58;10.90;;;;;;;-0.39;100.00;102008.81;1759190;81;21595;-84
2021/11/24 08:55:11;;;;;;;15.78;11.48;;;;;;;-0.35;100.00;102017.75;1758254;80;21077;-82
2021/11/24 08:57:40;;;;;;;50.90;12.33;;;;;;;-0.30;100.00;102015.60;1752244;80;21518;-83
2021/11/24 09:00:13;;;;;;;18.62;12.73;;;;;;;-0.13;100.00;102015.05;1761251;79;22327;-83
2021/11/24 09:02:43;;;;;;;24.35;13.10;;;;;;;0.12;100.00;102018.69;1759614;80;21165;-83
2021/11/24 09:05:13;;;;;;;19.65;13.10;;;;;;;0.12;100.00;102021.25;1762807;80;21482;-82
2021/11/24 09:07:41;;;;;;;30.12;13.03;;;;;;;0.07;100.00;102021.28;1726004;82;21063;-82
2021/11/24 09:10:10;;;;;;;21.10;12.65;;;;;;;0.07;100.00;102024.27;1734526;82;21053;-82
2021/11/24 09:12:39;;;;;;;26.23;13.13;;;;;;;0.08;100.00;102020.84;1734938;82;21033;-83
2021/11/24 09:15:09;;;;;;;28.90;13.53;;;;;;;0.06;100.00;102023.84;1748899;80;21082;-82
2021/11/24 09:17:40;;;;;;;24.20;12.68;;;;;;;0.03;100.00;102024.72;1739632;81;21664;-82
2021/11/24 09:20:09;;;;;;;34.05;13.75;;;;;;;0.03;100.00;102027.73;1740733;81;21070;-85
2021/11/24 09:22:41;;;;;;;21.35;12.65;;;;;;;0.03;100.00;102023.89;1760769;80;21069;-82
2021/11/24 09:25:11;;;;;;;23.87;13.35;;;;;;;0.02;100.00;102028.14;1716297;83;21149;-82
2021/11/24 09:27:48;;;;;;;22.20;12.68;;;;;;;0.01;100.00;102025.61;1696279;83;21845;-82
2021/11/24 09:30:17;;;;;;;20.65;14.07;;;;;;;-0.04;100.00;102025.19;1671053;83;21074;-82
2021/11/24 09:32:46;;;;;;;24.50;13.53;;;;;;;-0.07;100.00;102030.77;1687913;82;21504;-84
2021/11/24 09:35:15;;;;;;;35.73;15.75;;;;;;;-0.06;100.00;102029.91;1689278;83;21002;-81
2021/11/24 09:37:43;;;;;;;26.95;13.70;;;;;;;0.01;100.00;102028.16;1713939;82;21073;-81
2021/11/24 09:40:13;;;;;;;33.38;14.33;;;;;;;0.02;100.00;102026.02;1679634;83;21949;-81
2021/11/24 09:42:46;;;;;;;19.60;12.95;;;;;;;0.05;100.00;102022.14;1658583;84;22134;-82
2021/11/24 09:45:16;;;;;;;23.25;13.10;;;;;;;0.07;100.00;102016.58;1704172;83;21066;-81
2021/11/24 09:47:48;;;;;;;22.30;14.47;;;;;;;0.14;100.00;102019.09;1669730;84;21557;-81
2021/11/24 09:50:22;;;;;;;17.90;12.45;;;;;;;0.21;100.00;102024.15;1721111;82;21079;-81
2021/11/24 09:52:50;;;;;;;38.58;14.55;;;;;;;0.27;100.00;102017.68;1684046;83;21107;-84
2021/11/24 09:55:21;;;;;;;22.37;14.13;;;;;;;0.53;100.00;102018.69;1749341;81;21104;-84
2021/11/24 09:57:54;;;;;;;23.95;13.03;;;;;;;0.85;100.00;102014.91;1766268;80;21100;-83
2021/11/24 10:00:26;;;;;;;20.85;11.83;;;;;;;0.93;100.00;102019.52;1723175;80;21140;-84
2021/11/24 10:02:59;;;;;;;37.10;12.55;;;;;;;1.03;100.00;102024.13;1760406;79;21057;-84
2021/11/24 10:05:28;;;;;;;37.03;11.70;;;;;;;1.10;100.00;102015.48;1731614;81;21013;-82
2021/11/24 10:07:57;;;;;;;25.85;10.35;;;;;;;1.30;100.00;102023.77;1759231;79;21073;-81
2021/11/24 10:10:27;;;;;;;29.00;10.13;;;;;;;1.35;100.00;102023.27;1721188;81;21100;-81
2021/11/24 10:12:56;;;;;;;12.03;8.45;;;;;;;1.24;100.00;102017.84;1711128;82;21066;-81
2021/11/24 10:15:47;;;;;;;18.73;9.50;;;;;;;1.10;100.00;102015.89;1745265;80;21066;-83
2021/11/24 10:18:32;;;;;;;20.45;8.40;;;;;;;0.99;100.00;102015.20;1736452;81;21030;-84
2021/11/24 10:21:09;;;;;;;19.25;9.05;;;;;;;0.86;100.00;102017.89;1752713;81;21124;-81
2021/11/24 10:23:46;;;;;;;17.62;8.25;;;;;;;0.84;100.00;102019.63;1764553;79;20974;-81
2021/11/24 10:26:32;;;;;;;16.85;8.40;;;;;;;0.87;100.00;102014.47;1745815;81;21048;-82
2021/11/24 10:29:06;;;;;;;13.85;7.62;;;;;;;0.90;100.00;102016.14;1764222;80;21685;-82
2021/11/24 10:31:53;;;;;;;12.50;7.72;;;;;;;0.96;100.00;102017.80;1761868;80;21816;-81
2021/11/24 10:34:30;;;;;;;15.78;7.42;;;;;;;0.92;100.00;102021.66;1767427;80;21558;-83
2021/11/24 10:37:08;;;;;;;14.53;5.83;;;;;;;0.85;100.00;102018.76;1755299;81;21578;-82
2021/11/24 10:39:51;;;;;;;12.20;6.30;;;;;;;0.85;100.00;102025.17;1750335;80;21105;-84
2021/11/24 10:42:26;;;;;;;15.30;5.97;;;;;;;0.85;100.00;102020.48;1746312;81;21041;-81
2021/11/24 10:44:58;;;;;;;6.33;5.20;;;;;;;0.80;100.00;102024.84;1759134;81;21041;-81
2021/11/24 10:47:28;;;;;;;7.22;5.30;;;;;;;0.72;100.00;102026.19;1750685;81;21070;-81
2021/11/24 10:50:02;;;;;;;10.10;5.40;;;;;;;0.60;97.48;102024.61;1757453;80;21508;-81
2021/11/24 10:52:37;;;;;;;9.13;4.78;;;;;;;0.47;100.00;102023.89;1736536;82;21033;-82
2021/11/24 10:55:15;;;;;;;11.78;5.37;;;;;;;0.43;100.00;102023.08;1753990;81;21025;-81
2021/11/24 10:58:04;;;;;;;17.40;7.22;;;;;;;0.45;100.00;102021.77;1744261;80;21131;-82
2021/11/24 11:00:43;;;;;;;11.43;6.20;;;;;;;0.48;100.00;102032.00;1746537;80;21768;-81
2021/11/24 11:03:13;;;;;;;12.18;6.22;;;;;;;0.51;100.00;102029.83;1683576;84;21014;-81
2021/11/24 11:05:45;;;;;;;9.60;6.12;;;;;;;0.50;100.00;102029.00;1752403;80;21044;-83
2021/11/24 11:08:15;;;;;;;13.05;7.00;;;;;;;0.48;100.00;102028.16;1762036;79;21441;-80
2021/11/24 11:10:49;;;;;;;12.15;6.75;;;;;;;0.44;100.00;102032.91;1755693;80;21233;-84
2021/11/24 11:13:22;;;;;;;21.25;7.53;;;;;;;0.39;100.00;102025.67;1728256;82;21056;-82